createdAt,value
2022-10-16T00:02:21.762Z,16.20
2022-10-16T00:04:58.132Z,16.20
2022-10-16T00:07:28.626Z,16.20
2022-10-16T00:09:58.211Z,16.20
2022-10-16T00:12:29.213Z,16.10
2022-10-16T00:14:59.980Z,16.10
2022-10-16T00:17:29.227Z,16.00
2022-10-16T00:19:59.153Z,16.00
2022-10-16T00:22:32.880Z,16.00
2022-10-16T00:25:01.954Z,15.90
2022-10-16T00:27:30.969Z,15.90
2022-10-16T00:30:01.874Z,15.80
2022-10-16T00:32:35.355Z,15.80
2022-10-16T00:35:05.452Z,15.80
2022-10-16T00:37:34.385Z,15.70
2022-10-16T00:40:03.288Z,15.60
2022-10-16T00:42:47.037Z,15.60
2022-10-16T00:45:19.216Z,15.50
2022-10-16T00:47:54.997Z,15.40
2022-10-16T00:50:36.154Z,15.40
2022-10-16T00:53:07.080Z,15.30
2022-10-16T00:55:48.008Z,15.20
2022-10-16T00:58:17.659Z,15.20
2022-10-16T01:00:48.076Z,15.20
2022-10-16T01:03:30.876Z,15.20
2022-10-16T01:06:28.859Z,15.10
2022-10-16T01:09:15.015Z,15.10
2022-10-16T01:12:02.240Z,15.10
2022-10-16T01:14:47.036Z,15.00
2022-10-16T01:17:24.841Z,14.90
2022-10-16T01:20:12.455Z,14.80
2022-10-16T01:23:00.453Z,14.80
2022-10-16T01:25:56.289Z,14.80
2022-10-16T01:28:38.818Z,14.70
2022-10-16T01:31:09.498Z,14.70
2022-10-16T01:33:47.978Z,14.80
2022-10-16T01:36:24.169Z,14.80
2022-10-16T01:38:58.964Z,14.80
2022-10-16T01:41:36.024Z,14.80
2022-10-16T01:44:13.621Z,14.80
2022-10-16T01:46:48.855Z,14.80
2022-10-16T01:49:29.221Z,14.80
2022-10-16T01:52:07.859Z,14.80
2022-10-16T01:54:44.005Z,14.80
2022-10-16T01:57:15.604Z,14.80
2022-10-16T01:59:54.194Z,14.70
2022-10-16T02:02:25.962Z,14.60
2022-10-16T02:05:02.045Z,14.60
2022-10-16T02:07:31.969Z,14.60
2022-10-16T02:10:03.885Z,14.60
2022-10-16T02:12:40.833Z,14.50
2022-10-16T02:15:12.202Z,14.50
2022-10-16T02:17:41.243Z,14.40
2022-10-16T02:20:14.471Z,14.40
2022-10-16T02:22:49.549Z,14.30
2022-10-16T02:25:27.452Z,14.20
2022-10-16T02:28:04.719Z,14.20
2022-10-16T02:30:44.741Z,14.20
2022-10-16T02:33:20.721Z,14.20
2022-10-16T02:35:55.678Z,14.20
2022-10-16T02:38:33.786Z,14.10
2022-10-16T02:41:02.848Z,14.10
2022-10-16T02:43:32.457Z,14.10
2022-10-16T02:46:04.566Z,14.10
2022-10-16T02:48:37.190Z,14.00
2022-10-16T02:51:06.502Z,14.10
2022-10-16T02:53:38.043Z,14.10
2022-10-16T02:56:08.175Z,14.00
2022-10-16T02:58:37.503Z,14.00
2022-10-16T03:01:08.169Z,14.00
2022-10-16T03:03:37.818Z,14.00
2022-10-16T03:06:07.339Z,14.00
2022-10-16T03:08:36.786Z,14.10
2022-10-16T03:11:09.285Z,14.10
2022-10-16T03:13:40.995Z,14.10
2022-10-16T03:16:11.644Z,14.10
2022-10-16T03:18:42.790Z,14.20
2022-10-16T03:21:11.899Z,14.20
2022-10-16T03:23:40.823Z,14.10
2022-10-16T03:26:12.068Z,14.20
2022-10-16T03:28:41.328Z,14.20
2022-10-16T03:31:14.543Z,14.20
2022-10-16T03:33:43.605Z,14.20
2022-10-16T03:36:12.885Z,14.30
2022-10-16T03:38:42.609Z,14.30
2022-10-16T03:41:11.752Z,14.30
2022-10-16T03:43:44.268Z,14.20
2022-10-16T03:46:17.789Z,14.20
2022-10-16T03:48:47.226Z,14.20
2022-10-16T03:51:20.163Z,14.20
2022-10-16T03:53:49.354Z,14.10
2022-10-16T03:56:18.755Z,14.10
2022-10-16T03:58:47.445Z,14.00
2022-10-16T04:01:18.575Z,14.00
2022-10-16T04:03:47.887Z,13.90
2022-10-16T04:06:16.848Z,13.90
2022-10-16T04:08:46.654Z,13.80
2022-10-16T04:11:15.781Z,13.80
2022-10-16T04:13:45.041Z,13.80
2022-10-16T04:16:13.956Z,13.90
2022-10-16T04:18:44.761Z,13.90
2022-10-16T04:21:16.323Z,13.80
2022-10-16T04:23:46.259Z,13.80
2022-10-16T04:26:18.669Z,13.80
2022-10-16T04:28:49.789Z,13.80
2022-10-16T04:31:19.668Z,13.70
2022-10-16T04:33:50.362Z,13.70
2022-10-16T04:36:19.710Z,13.60
2022-10-16T04:38:48.722Z,13.50
2022-10-16T04:41:17.601Z,13.50
2022-10-16T04:43:47.067Z,13.50
2022-10-16T04:46:16.310Z,13.40
2022-10-16T04:48:45.353Z,13.40
2022-10-16T04:51:16.064Z,13.40
2022-10-16T04:53:45.029Z,13.30
2022-10-16T04:56:14.105Z,13.20
2022-10-16T04:58:46.362Z,13.20
2022-10-16T05:01:15.472Z,13.20
2022-10-16T05:03:45.603Z,13.10
2022-10-16T05:06:16.384Z,13.10
2022-10-16T05:08:47.064Z,13.10
2022-10-16T05:11:19.398Z,13.00
2022-10-16T05:13:49.922Z,12.90
2022-10-16T05:16:21.837Z,12.90
2022-10-16T05:18:53.205Z,12.90
2022-10-16T05:21:27.131Z,12.90
2022-10-16T05:23:57.293Z,13.00
2022-10-16T05:26:27.130Z,13.00
2022-10-16T05:28:56.602Z,13.00
2022-10-16T05:31:25.831Z,13.10
2022-10-16T05:33:54.839Z,13.10
2022-10-16T05:36:25.763Z,13.10
2022-10-16T05:38:55.404Z,13.10
2022-10-16T05:41:28.030Z,13.10
2022-10-16T05:43:57.265Z,13.10
2022-10-16T05:46:29.815Z,13.10
2022-10-16T05:48:58.699Z,13.10
2022-10-16T05:51:31.075Z,13.10
2022-10-16T05:54:00.158Z,13.20
2022-10-16T05:56:29.571Z,13.20
2022-10-16T05:58:58.944Z,13.10
2022-10-16T06:01:31.009Z,13.00
2022-10-16T06:04:00.587Z,13.00
2022-10-16T06:06:32.196Z,13.00
2022-10-16T06:09:02.088Z,13.00
2022-10-16T06:11:33.710Z,13.00
2022-10-16T06:14:08.067Z,13.00
2022-10-16T06:16:38.740Z,12.90
2022-10-16T06:19:09.442Z,13.00
2022-10-16T06:21:39.943Z,13.10
2022-10-16T06:24:09.286Z,13.10
2022-10-16T06:26:39.520Z,13.20
2022-10-16T06:29:08.657Z,13.20
2022-10-16T06:31:37.866Z,13.30
2022-10-16T06:34:10.611Z,13.30
2022-10-16T06:36:45.786Z,13.30
2022-10-16T06:39:15.098Z,13.30
2022-10-16T06:41:44.489Z,13.40
2022-10-16T06:44:16.535Z,13.40
2022-10-16T06:46:45.495Z,13.60
2022-10-16T06:49:17.058Z,13.70
2022-10-16T06:51:48.862Z,13.80
2022-10-16T06:54:18.948Z,13.80
2022-10-16T06:56:47.919Z,14.00
2022-10-16T06:59:17.196Z,14.00
2022-10-16T07:01:47.342Z,14.10
2022-10-16T07:04:16.074Z,14.20
2022-10-16T07:06:47.230Z,14.20
2022-10-16T07:09:17.198Z,14.40
2022-10-16T07:11:46.819Z,14.50
2022-10-16T07:14:20.131Z,14.70
2022-10-16T07:16:50.580Z,14.80
2022-10-16T07:19:23.402Z,15.10
2022-10-16T07:21:53.826Z,15.20
2022-10-16T07:24:23.174Z,15.40
2022-10-16T07:26:57.438Z,15.50
2022-10-16T07:29:32.264Z,15.80
2022-10-16T07:32:01.716Z,16.70
2022-10-16T07:34:31.492Z,17.50
2022-10-16T07:37:05.139Z,18.30
2022-10-16T07:39:34.681Z,19.00
2022-10-16T07:42:06.778Z,18.90
2022-10-16T07:44:35.713Z,18.80
2022-10-16T07:47:05.310Z,19.40
2022-10-16T07:49:35.093Z,19.60
2022-10-16T07:52:06.282Z,20.10
2022-10-16T07:54:35.137Z,19.60
2022-10-16T07:57:05.321Z,19.60
2022-10-16T07:59:42.621Z,19.20
2022-10-16T08:02:11.693Z,18.60
2022-10-16T08:04:42.229Z,17.80
2022-10-16T08:07:13.439Z,17.50
2022-10-16T08:09:42.652Z,17.20
2022-10-16T08:12:12.161Z,17.10
2022-10-16T08:14:44.425Z,17.10
2022-10-16T08:17:20.250Z,17.00
2022-10-16T08:19:50.898Z,16.90
2022-10-16T08:22:25.963Z,16.70
2022-10-16T08:24:57.876Z,16.70
2022-10-16T08:27:29.077Z,16.70
2022-10-16T08:29:57.910Z,16.80
2022-10-16T08:32:27.833Z,16.80
2022-10-16T08:34:57.179Z,16.70
2022-10-16T08:37:34.249Z,16.50
2022-10-16T08:40:05.599Z,16.40
2022-10-16T08:43:09.405Z,16.30
2022-10-16T08:45:57.127Z,16.30
2022-10-16T08:48:38.484Z,16.30
2022-10-16T08:51:10.801Z,16.40
2022-10-16T08:53:53.442Z,16.40
2022-10-16T08:56:24.080Z,16.30
2022-10-16T08:58:58.084Z,16.20
2022-10-16T09:01:43.287Z,16.20
2022-10-16T09:05:04.799Z,16.40
2022-10-16T09:07:42.667Z,16.70
2022-10-16T09:10:34.536Z,17.00
2022-10-16T09:13:22.240Z,17.20
2022-10-16T09:16:04.920Z,17.50
2022-10-16T09:18:51.356Z,17.70
2022-10-16T09:21:31.785Z,17.90
2022-10-16T09:24:11.543Z,18.80
2022-10-16T09:26:44.655Z,19.60
2022-10-16T09:29:15.641Z,20.70
2022-10-16T09:31:49.431Z,20.90
2022-10-16T09:34:39.819Z,20.90
2022-10-16T09:37:17.920Z,21.40
2022-10-16T09:39:52.860Z,21.20
2022-10-16T09:42:33.451Z,21.50
2022-10-16T09:45:06.509Z,21.40
2022-10-16T09:47:45.629Z,21.20
2022-10-16T09:50:27.676Z,21.50
2022-10-16T09:53:08.233Z,21.50
2022-10-16T09:55:50.483Z,21.60
2022-10-16T09:58:26.571Z,21.20
2022-10-16T10:00:58.297Z,21.10
2022-10-16T10:03:40.188Z,21.00
2022-10-16T10:06:30.411Z,21.40
2022-10-16T10:09:09.633Z,21.40
2022-10-16T10:12:00.222Z,20.80
2022-10-16T10:14:37.523Z,20.20
2022-10-16T10:17:23.584Z,20.30
2022-10-16T10:19:57.486Z,20.70
2022-10-16T10:22:33.937Z,20.60
2022-10-16T10:25:43.223Z,21.00
2022-10-16T10:28:43.975Z,21.30
2022-10-16T10:31:27.303Z,21.40
2022-10-16T10:34:11.012Z,21.70
2022-10-16T10:36:43.255Z,21.60
2022-10-16T10:42:25.889Z,21.40
2022-10-16T10:45:20.475Z,21.40
2022-10-16T10:48:23.374Z,21.30
2022-10-16T10:51:04.512Z,22.00
2022-10-16T10:53:50.474Z,21.90
2022-10-16T10:56:45.476Z,21.80
2022-10-16T10:59:55.831Z,21.60
2022-10-16T11:02:39.497Z,21.50
2022-10-16T11:05:41.884Z,21.50
2022-10-16T11:08:19.950Z,21.50
2022-10-16T11:10:56.942Z,21.10
2022-10-16T11:13:38.730Z,21.20
2022-10-16T11:16:21.702Z,21.70
2022-10-16T11:18:59.114Z,21.70
2022-10-16T11:21:42.161Z,21.40
2022-10-16T11:24:24.929Z,21.30
2022-10-16T11:26:59.341Z,21.00
2022-10-16T11:29:34.447Z,21.50
2022-10-16T11:32:37.909Z,21.30
2022-10-16T11:35:25.467Z,21.50
2022-10-16T11:38:01.127Z,21.00
2022-10-16T11:40:36.100Z,20.60
2022-10-16T11:43:17.193Z,20.30
2022-10-16T11:45:52.179Z,19.90
2022-10-16T11:48:33.461Z,20.00
2022-10-16T11:51:17.492Z,20.30
2022-10-16T11:54:02.654Z,20.50
2022-10-16T11:56:39.435Z,20.40
2022-10-16T11:59:18.575Z,20.40
2022-10-16T12:01:56.991Z,20.40
2022-10-16T12:04:40.113Z,20.70
2022-10-16T12:07:15.594Z,20.90
2022-10-16T12:09:46.512Z,21.10
2022-10-16T12:12:33.032Z,21.40
2022-10-16T12:15:40.965Z,21.60
2022-10-16T12:18:25.427Z,21.60
2022-10-16T12:21:05.701Z,21.30
2022-10-16T12:23:42.163Z,21.30
2022-10-16T12:26:17.521Z,21.50
2022-10-16T12:28:52.980Z,21.70
2022-10-16T12:31:23.702Z,21.90
2022-10-16T12:34:06.834Z,21.20
2022-10-16T12:36:37.881Z,20.50
2022-10-16T12:39:08.366Z,20.30
2022-10-16T12:41:41.260Z,20.20
2022-10-16T12:44:27.665Z,20.20
2022-10-16T12:46:59.331Z,20.30
2022-10-16T12:49:39.411Z,19.90
2022-10-16T12:52:28.450Z,19.70
2022-10-16T12:55:02.581Z,19.50
2022-10-16T12:57:54.210Z,19.40
2022-10-16T13:00:34.810Z,19.40
2022-10-16T13:03:50.468Z,19.60
2022-10-16T13:06:36.844Z,20.00
2022-10-16T13:09:43.553Z,20.70
2022-10-16T13:12:56.677Z,21.30
2022-10-16T13:15:54.499Z,21.20
2022-10-16T13:18:35.425Z,20.50
2022-10-16T13:21:37.944Z,20.00
2022-10-16T13:24:25.623Z,19.60
2022-10-16T13:27:11.740Z,19.90
2022-10-16T13:29:44.682Z,20.40
2022-10-16T13:32:18.700Z,20.20
2022-10-16T13:34:51.357Z,19.90
2022-10-16T13:37:23.607Z,19.50
2022-10-16T13:39:57.126Z,19.20
2022-10-16T13:42:32.620Z,19.30
2022-10-16T13:45:03.330Z,19.50
2022-10-16T13:47:35.129Z,19.40
2022-10-16T13:50:08.399Z,19.30
2022-10-16T13:52:38.571Z,19.50
2022-10-16T13:55:14.226Z,19.90
2022-10-16T13:57:43.600Z,20.10
2022-10-16T14:00:31.513Z,20.30
2022-10-16T14:03:07.365Z,20.30
2022-10-16T14:05:38.104Z,20.30
2022-10-16T14:08:15.155Z,20.40
2022-10-16T14:10:45.416Z,20.60
2022-10-16T14:13:21.829Z,20.70
2022-10-16T14:15:58.318Z,20.60
2022-10-16T14:18:33.501Z,20.20
2022-10-16T14:21:14.710Z,19.80
2022-10-16T14:23:47.802Z,19.80
2022-10-16T14:26:21.674Z,20.10
2022-10-16T14:29:06.489Z,20.50
2022-10-16T14:31:38.630Z,20.60
2022-10-16T14:34:23.342Z,20.50
2022-10-16T14:36:52.735Z,20.40
2022-10-16T14:39:24.770Z,20.10
2022-10-16T14:42:02.443Z,19.80
2022-10-16T14:44:39.213Z,19.60
2022-10-16T14:47:23.542Z,19.50
2022-10-16T14:49:53.133Z,19.30
2022-10-16T14:52:26.350Z,19.10
2022-10-16T14:54:57.613Z,19.00
2022-10-16T14:57:33.475Z,18.90
2022-10-16T15:00:02.868Z,19.00
2022-10-16T15:02:40.935Z,18.80
2022-10-16T15:05:20.400Z,18.70
2022-10-16T15:07:56.011Z,18.50
2022-10-16T15:10:30.612Z,18.30
2022-10-16T15:12:59.352Z,18.10
2022-10-16T15:15:47.234Z,17.90
2022-10-16T15:18:22.202Z,17.90
2022-10-16T15:20:57.778Z,17.80
2022-10-16T15:23:27.740Z,17.70
2022-10-16T15:25:59.422Z,18.20
2022-10-16T15:28:29.264Z,18.30
2022-10-16T15:31:02.046Z,18.00
2022-10-16T15:33:38.783Z,17.90
2022-10-16T15:36:11.428Z,18.00
2022-10-16T15:38:45.254Z,18.20
2022-10-16T15:41:13.997Z,18.60
2022-10-16T15:43:42.848Z,18.70
2022-10-16T15:46:20.588Z,18.70
2022-10-16T15:48:52.671Z,18.20
2022-10-16T15:51:21.270Z,17.60
2022-10-16T15:54:04.385Z,17.10
2022-10-16T15:56:34.761Z,16.80
2022-10-16T15:59:03.776Z,16.50
2022-10-16T16:01:36.999Z,16.30
2022-10-16T16:04:11.319Z,16.20
2022-10-16T16:06:51.039Z,16.10
2022-10-16T16:09:20.706Z,15.90
2022-10-16T16:11:55.755Z,15.80
2022-10-16T16:14:27.609Z,15.60
2022-10-16T16:16:56.770Z,15.50
2022-10-16T16:19:27.641Z,15.50
2022-10-16T16:21:56.800Z,15.40
2022-10-16T16:24:26.271Z,15.30
2022-10-16T16:26:57.130Z,15.10
2022-10-16T16:29:30.876Z,15.00
2022-10-16T16:32:00.658Z,15.00
2022-10-16T16:34:32.101Z,15.00
2022-10-16T16:37:01.527Z,15.00
2022-10-16T16:39:44.502Z,14.80
2022-10-16T16:42:14.815Z,14.80
2022-10-16T16:44:46.150Z,14.80
2022-10-16T16:47:16.152Z,14.70
2022-10-16T16:49:47.688Z,14.70
2022-10-16T16:52:19.607Z,14.60
2022-10-16T16:54:53.515Z,14.30
2022-10-16T16:57:32.629Z,14.10
2022-10-16T17:00:03.253Z,14.00
2022-10-16T17:02:36.966Z,13.90
2022-10-16T17:05:12.370Z,13.80
2022-10-16T17:07:43.044Z,13.70
2022-10-16T17:10:17.109Z,13.50
2022-10-16T17:12:48.886Z,13.20
2022-10-16T17:15:19.786Z,13.00
2022-10-16T17:17:52.002Z,13.00
2022-10-16T17:20:24.427Z,12.80
2022-10-16T17:22:53.359Z,12.60
2022-10-16T17:25:25.357Z,12.40
2022-10-16T17:27:54.550Z,12.20
2022-10-16T17:30:26.511Z,12.10
2022-10-16T17:33:04.015Z,12.00
2022-10-16T17:35:41.867Z,12.00
2022-10-16T17:38:15.225Z,11.90
2022-10-16T17:40:44.797Z,11.90
2022-10-16T17:43:15.176Z,11.90
2022-10-16T17:45:44.681Z,11.90
2022-10-16T17:48:13.686Z,11.80
2022-10-16T17:50:45.850Z,11.70
2022-10-16T17:53:14.945Z,11.70
2022-10-16T17:55:44.578Z,11.60
2022-10-16T17:58:14.434Z,11.70
2022-10-16T18:00:43.638Z,11.60
2022-10-16T18:03:13.698Z,11.60
2022-10-16T18:05:45.392Z,11.60
2022-10-16T18:08:14.147Z,11.70
2022-10-16T18:10:50.951Z,11.60
2022-10-16T18:13:33.882Z,11.50
2022-10-16T18:16:04.718Z,11.40
2022-10-16T18:18:34.872Z,11.50
2022-10-16T18:21:12.587Z,11.60
2022-10-16T18:23:44.500Z,11.60
2022-10-16T18:26:17.439Z,11.50
2022-10-16T18:28:46.708Z,11.40
2022-10-16T18:31:29.905Z,11.20
2022-10-16T18:34:02.465Z,11.00
2022-10-16T18:36:40.178Z,10.90
2022-10-16T18:39:12.095Z,10.90
2022-10-16T18:41:47.831Z,10.90
2022-10-16T18:46:50.841Z,10.90
2022-10-16T18:49:20.186Z,10.90
2022-10-16T18:51:56.465Z,11.00
2022-10-16T18:54:28.512Z,11.00
2022-10-16T18:56:58.094Z,11.00
2022-10-16T18:59:27.687Z,10.90
2022-10-16T19:01:56.850Z,11.00
2022-10-16T19:04:26.165Z,10.90
2022-10-16T19:06:58.604Z,10.80
2022-10-16T19:09:29.240Z,10.70
2022-10-16T19:12:00.175Z,10.50
2022-10-16T19:14:30.340Z,10.50
2022-10-16T19:16:59.506Z,10.50
2022-10-16T19:19:53.996Z,10.40
2022-10-16T19:22:42.947Z,10.30
2022-10-16T19:25:11.988Z,10.20
2022-10-16T19:27:44.462Z,10.10
2022-10-16T19:30:16.997Z,10.10
2022-10-16T19:32:50.033Z,10.10
2022-10-16T19:35:20.458Z,10.20
2022-10-16T19:37:56.272Z,10.40
2022-10-16T19:40:25.250Z,10.40
2022-10-16T19:42:57.807Z,10.40
2022-10-16T19:45:26.625Z,10.50
2022-10-16T19:47:55.502Z,10.60
2022-10-16T19:50:24.743Z,10.60
2022-10-16T19:52:56.646Z,10.70
2022-10-16T19:55:25.648Z,10.60
2022-10-16T19:57:55.045Z,10.40
2022-10-16T20:00:27.215Z,10.20
2022-10-16T20:02:56.265Z,10.00
2022-10-16T20:05:25.099Z,9.80
2022-10-16T20:07:57.675Z,9.70
2022-10-16T20:10:29.162Z,9.50
2022-10-16T20:13:00.436Z,9.40
2022-10-16T20:15:35.380Z,9.30
2022-10-16T20:18:06.003Z,9.40
2022-10-16T20:20:39.252Z,9.40
2022-10-16T20:23:10.700Z,9.30
2022-10-16T20:25:43.755Z,9.30
2022-10-16T20:28:24.044Z,9.30
2022-10-16T20:30:59.525Z,9.30
2022-10-16T20:33:29.518Z,9.30
2022-10-16T20:35:58.596Z,9.10
2022-10-16T20:38:32.566Z,9.10
2022-10-16T20:41:05.878Z,9.00
2022-10-16T20:43:39.248Z,9.00
2022-10-16T20:46:10.132Z,9.20
2022-10-16T20:48:44.007Z,9.20
2022-10-16T20:51:15.716Z,9.20
2022-10-16T20:53:48.013Z,9.30
2022-10-16T20:56:17.993Z,9.40
2022-10-16T20:58:48.091Z,9.40
2022-10-16T21:01:23.356Z,9.30
2022-10-16T21:03:55.130Z,9.20
2022-10-16T21:06:25.544Z,9.10
2022-10-16T21:08:57.122Z,9.20
2022-10-16T21:11:28.602Z,9.30
2022-10-16T21:14:01.458Z,9.20
2022-10-16T21:16:31.634Z,9.10
2022-10-16T21:19:01.131Z,9.00
2022-10-16T21:21:32.457Z,9.00
2022-10-16T21:24:03.611Z,8.90
2022-10-16T21:26:33.281Z,8.80
2022-10-16T21:29:05.751Z,8.90
2022-10-16T21:31:36.404Z,8.90
2022-10-16T21:34:06.048Z,8.90
2022-10-16T21:36:39.329Z,9.00
2022-10-16T21:39:12.729Z,9.00
2022-10-16T21:41:46.896Z,8.90
2022-10-16T21:44:18.133Z,9.00
2022-10-16T21:46:53.445Z,9.00
2022-10-16T21:49:23.243Z,9.20
2022-10-16T21:51:52.974Z,9.10
2022-10-16T21:54:25.834Z,9.10
2022-10-16T21:56:55.071Z,9.10
2022-10-16T21:59:24.620Z,9.00
2022-10-16T22:01:56.525Z,8.90
2022-10-16T22:04:25.300Z,8.90
2022-10-16T22:06:54.422Z,8.90
2022-10-16T22:09:25.184Z,8.80
2022-10-16T22:11:54.973Z,8.70
2022-10-16T22:14:30.948Z,8.60
2022-10-16T22:17:03.853Z,8.60
2022-10-16T22:19:34.691Z,8.60
